Time,TemperatureF,DewpointF,PressureIn,WindDirection,WindDirectionDegrees,WindSpeedMPH,WindSpeedGustMPH,Humidity,HourlyPrecipIn,Conditions,Clouds,dailyrainin,SolarRadiationWatts/m^2,SoftwareType,DateUTC
2013-09-20 04:52:00,64.0,37.0,-100.00,WSW,256,9.0,19.0,36,0.00,,,0.00,0.000000,,2013-09-20 11:52:00,
2013-09-20 05:02:00,64.0,37.0,-100.00,WSW,256,9.0,19.0,36,0.00,,,0.00,0.000000,,2013-09-20 12:02:00,
2013-09-20 05:12:00,64.0,37.0,-100.00,WSW,256,9.0,19.0,36,0.00,,,0.00,0.000000,,2013-09-20 12:12:00,
2013-09-20 05:22:00,64.0,37.0,-100.00,WSW,256,9.0,19.0,36,0.00,,,0.00,0.000000,,2013-09-20 12:22:00,
2013-09-20 06:21:00,64.0,34.0,-100.00,WSW,245,9.0,16.0,33,0.00,,,0.00,0.000000,,2013-09-20 13:21:00,
2013-09-20 06:52:00,60.0,32.0,-100.00,WSW,253,10.0,17.0,34,0.00,,,0.00,0.000000,,2013-09-20 13:52:00,
2013-09-20 07:02:00,60.0,32.0,-100.00,WSW,253,10.0,17.0,34,0.00,,,0.00,0.000000,,2013-09-20 14:02:00,
2013-09-20 07:11:00,60.0,32.0,-100.00,WSW,253,10.0,17.0,34,0.00,,,0.00,0.000000,,2013-09-20 14:11:00,
2013-09-20 07:21:00,60.0,32.0,-100.00,WSW,253,10.0,17.0,34,0.00,,,0.00,0.000000,,2013-09-20 14:21:00,
2013-09-20 07:52:00,64.0,40.0,-100.00,WSW,252,12.0,19.0,41,0.00,,,0.00,12.000000,,2013-09-20 14:52:00,
2013-09-20 08:02:00,64.0,40.0,-100.00,WSW,252,12.0,19.0,41,0.00,,,0.00,12.000000,,2013-09-20 15:02:00,
2013-09-20 08:12:00,64.0,40.0,-100.00,WSW,252,12.0,19.0,41,0.00,,,0.00,12.000000,,2013-09-20 15:12:00,
2013-09-20 08:21:00,64.0,40.0,-100.00,WSW,252,12.0,19.0,41,0.00,,,0.00,12.000000,,2013-09-20 15:21:00,
2013-09-20 09:23:00,64.0,34.0,-100.00,West,262,12.0,22.0,33,0.00,,,0.00,123.000000,,2013-09-20 16:23:00,
2013-09-20 09:53:00,64.0,43.0,-100.00,West,274,22.0,29.0,46,0.00,,,0.00,329.000000,,2013-09-20 16:53:00,
2013-09-20 10:03:00,64.0,43.0,-100.00,West,274,22.0,29.0,46,0.00,,,0.00,329.000000,,2013-09-20 17:03:00,
2013-09-20 10:13:00,64.0,43.0,-100.00,West,274,22.0,29.0,46,0.00,,,0.00,329.000000,,2013-09-20 17:13:00,
2013-09-20 10:23:00,64.0,43.0,-100.00,West,274,22.0,29.0,46,0.00,,,0.00,329.000000,,2013-09-20 17:23:00,
2013-09-20 10:53:00,63.0,48.0,-100.00,West,272,26.0,36.0,59,0.00,,,0.00,512.000000,,2013-09-20 17:53:00,
2013-09-20 11:02:00,63.0,48.0,-100.00,West,272,26.0,36.0,59,0.00,,,0.00,512.000000,,2013-09-20 18:02:00,
2013-09-20 11:12:00,63.0,48.0,-100.00,West,272,26.0,36.0,59,0.00,,,0.00,512.000000,,2013-09-20 18:12:00,
2013-09-20 11:22:00,63.0,48.0,-100.00,West,272,26.0,36.0,59,0.00,,,0.00,512.000000,,2013-09-20 18:22:00,
2013-09-20 11:52:00,62.0,54.0,-100.00,West,274,26.0,37.0,75,0.00,,,0.00,611.000000,,2013-09-20 18:52:00,
2013-09-20 12:02:00,62.0,54.0,-100.00,West,274,26.0,37.0,75,0.00,,,0.00,611.000000,,2013-09-20 19:02:00,
2013-09-20 12:11:00,62.0,54.0,-100.00,West,274,26.0,37.0,75,0.00,,,0.00,611.000000,,2013-09-20 19:11:00,
2013-09-20 12:22:00,62.0,54.0,-100.00,West,274,26.0,37.0,75,0.00,,,0.00,611.000000,,2013-09-20 19:22:00,
2013-09-20 12:53:00,65.0,55.0,-100.00,West,273,23.0,38.0,71,0.00,,,0.00,726.000000,,2013-09-20 19:53:00,
2013-09-20 13:03:00,65.0,55.0,-100.00,West,273,23.0,38.0,71,0.00,,,0.00,726.000000,,2013-09-20 20:03:00,
2013-09-20 13:11:00,65.0,55.0,-100.00,West,273,23.0,38.0,71,0.00,,,0.00,726.000000,,2013-09-20 20:11:00,
2013-09-20 13:22:00,65.0,55.0,-100.00,West,273,23.0,38.0,71,0.00,,,0.00,726.000000,,2013-09-20 20:22:00,
2013-09-20 13:52:00,67.0,55.0,-100.00,West,270,22.0,35.0,65,0.00,,,0.00,776.000000,,2013-09-20 20:52:00,
2013-09-20 14:02:00,67.0,55.0,-100.00,West,270,22.0,35.0,65,0.00,,,0.00,776.000000,,2013-09-20 21:02:00,
2013-09-20 14:12:00,67.0,55.0,-100.00,West,270,22.0,35.0,65,0.00,,,0.00,776.000000,,2013-09-20 21:12:00,
2013-09-20 14:21:00,67.0,55.0,-100.00,West,270,22.0,35.0,65,0.00,,,0.00,776.000000,,2013-09-20 21:21:00,
2013-09-20 14:55:00,67.0,54.0,-100.00,West,273,24.0,32.0,64,0.00,,,0.00,729.000000,,2013-09-20 21:55:00,
2013-09-20 15:04:00,67.0,54.0,-100.00,West,273,24.0,32.0,64,0.00,,,0.00,729.000000,,2013-09-20 22:04:00,
2013-09-20 15:14:00,67.0,54.0,-100.00,West,273,24.0,32.0,64,0.00,,,0.00,729.000000,,2013-09-20 22:14:00,
2013-09-20 15:23:00,67.0,54.0,-100.00,West,273,24.0,32.0,64,0.00,,,0.00,729.000000,,2013-09-20 22:23:00,
2013-09-20 15:53:00,68.0,56.0,-100.00,West,271,21.0,36.0,65,0.00,,,0.00,659.000000,,2013-09-20 22:53:00,
2013-09-20 16:02:00,68.0,56.0,-100.00,West,271,21.0,36.0,65,0.00,,,0.00,659.000000,,2013-09-20 23:02:00,
2013-09-20 16:12:00,68.0,56.0,-100.00,West,271,21.0,36.0,65,0.00,,,0.00,659.000000,,2013-09-20 23:12:00,
2013-09-20 16:22:00,68.0,56.0,-100.00,West,271,21.0,36.0,65,0.00,,,0.00,659.000000,,2013-09-20 23:22:00,
2013-09-20 16:53:00,67.0,57.0,-100.00,West,261,16.0,32.0,71,0.00,,,0.00,485.000000,,2013-09-20 23:53:00,
2013-09-20 17:02:00,67.0,57.0,-100.00,West,261,16.0,32.0,71,0.00,,,0.00,485.000000,,2013-09-21 00:02:00,
2013-09-20 17:11:00,67.0,57.0,-100.00,West,261,16.0,32.0,71,0.00,,,0.00,485.000000,,2013-09-21 00:11:00,
2013-09-20 17:21:00,67.0,57.0,-100.00,West,261,16.0,32.0,71,0.00,,,0.00,485.000000,,2013-09-21 00:21:00,
2013-09-20 17:52:00,64.0,56.0,-100.00,West,271,20.0,30.0,75,0.00,,,0.00,435.000000,,2013-09-21 00:52:00,
2013-09-20 18:02:00,64.0,56.0,-100.00,West,271,20.0,30.0,75,0.00,,,0.00,435.000000,,2013-09-21 01:02:00,
2013-09-20 18:12:00,64.0,56.0,-100.00,West,271,20.0,30.0,75,0.00,,,0.00,435.000000,,2013-09-21 01:12:00,
2013-09-20 18:22:00,64.0,56.0,-100.00,West,271,20.0,30.0,75,0.00,,,0.00,435.000000,,2013-09-21 01:22:00,
2013-09-20 18:52:00,61.0,55.0,-100.00,West,270,23.0,32.0,81,0.00,,,0.00,106.000000,,2013-09-21 01:52:00,
2013-09-20 19:02:00,61.0,55.0,-100.00,West,270,23.0,32.0,81,0.00,,,0.00,106.000000,,2013-09-21 02:02:00,
2013-09-20 19:12:00,61.0,55.0,-100.00,West,270,23.0,32.0,81,0.00,,,0.00,106.000000,,2013-09-21 02:12:00,
2013-09-20 19:22:00,61.0,55.0,-100.00,West,270,23.0,32.0,81,0.00,,,0.00,106.000000,,2013-09-21 02:22:00,
2013-09-20 19:52:00,60.0,55.0,-100.00,West,260,19.0,29.0,83,0.00,,,0.00,11.000000,,2013-09-21 02:52:00,
2013-09-20 20:02:00,60.0,55.0,-100.00,West,260,19.0,29.0,83,0.00,,,0.00,11.000000,,2013-09-21 03:02:00,
2013-09-20 20:12:00,60.0,55.0,-100.00,West,260,19.0,29.0,83,0.00,,,0.00,11.000000,,2013-09-21 03:12:00,
2013-09-20 20:22:00,60.0,55.0,-100.00,West,260,19.0,29.0,83,0.00,,,0.00,11.000000,,2013-09-21 03:22:00,
2013-09-20 20:55:00,60.0,55.0,-100.00,West,263,19.0,28.0,83,0.00,,,0.00,0.000000,,2013-09-21 03:55:00,
2013-09-20 21:04:00,60.0,55.0,-100.00,West,263,19.0,28.0,83,0.00,,,0.00,0.000000,,2013-09-21 04:04:00,
2013-09-20 21:14:00,60.0,55.0,-100.00,West,263,19.0,28.0,83,0.00,,,0.00,0.000000,,2013-09-21 04:14:00,
2013-09-20 21:24:00,60.0,55.0,-100.00,West,263,19.0,28.0,83,0.00,,,0.00,0.000000,,2013-09-21 04:24:00,
2013-09-20 21:54:00,59.0,55.0,-100.00,West,264,17.0,28.0,87,0.00,,,0.00,0.000000,,2013-09-21 04:54:00,
2013-09-20 22:03:00,59.0,55.0,-100.00,West,264,17.0,28.0,87,0.00,,,0.00,0.000000,,2013-09-21 05:03:00,
2013-09-20 22:13:00,59.0,55.0,-100.00,West,264,17.0,28.0,87,0.00,,,0.00,0.000000,,2013-09-21 05:13:00,
2013-09-20 22:23:00,59.0,55.0,-100.00,West,264,17.0,28.0,87,0.00,,,0.00,0.000000,,2013-09-21 05:23:00,
2013-09-20 22:53:00,58.0,54.0,-100.00,WSW,256,13.0,25.0,85,0.00,,,0.00,0.000000,,2013-09-21 05:53:00,
2013-09-20 23:02:00,58.0,54.0,-100.00,WSW,256,13.0,25.0,85,0.00,,,0.00,0.000000,,2013-09-21 06:02:00,
2013-09-20 23:12:00,58.0,54.0,-100.00,WSW,256,13.0,25.0,85,0.00,,,0.00,0.000000,,2013-09-21 06:12:00,
2013-09-20 23:22:00,58.0,54.0,-100.00,WSW,256,13.0,25.0,85,0.00,,,0.00,0.000000,,2013-09-21 06:22:00,
2013-09-20 23:52:00,59.0,54.0,-100.00,WSW,256,11.0,23.0,83,0.00,,,0.00,0.000000,,2013-09-21 06:52:00,